Time;durP1;ratioP1;P1;durP2;ratioP2;P2;SDS_P1;SDS_P2;PMS_P1;PMS_P2;Temp;Humidity;BMP_temperature;BMP_pressure;BME280_temperature;BME280_humidity;BME280_pressure;Samples;Min_cycle;Max_cycle;Signal;HPM_P1;HPM_P2
2022/03/05 00:01:26;;;;;;;10.40;7.10;;;1.90;99.90;;;;;;5090461;28;20421;-84
2022/03/05 00:03:52;;;;;;;9.23;7.38;;;1.90;99.90;;;;;;5090508;28;20410;-85
2022/03/05 00:06:18;;;;;;;9.38;7.15;;;1.90;99.90;;;;;;5073981;28;20828;-84
2022/03/05 00:08:43;;;;;;;10.33;7.53;;;1.90;99.90;;;;;;5090061;28;20406;-84
2022/03/05 00:11:09;;;;;;;10.50;7.15;;;1.80;99.90;;;;;;5090223;28;20960;-84
2022/03/05 00:13:36;;;;;;;10.45;7.60;;;1.80;99.90;;;;;;5089959;28;20433;-84
2022/03/05 00:16:02;;;;;;;8.52;5.80;;;1.80;99.90;;;;;;5091047;28;20052;-84
2022/03/05 00:18:28;;;;;;;;;;;1.80;99.90;;;;;;5092405;28;20437;-84
2022/03/05 00:20:53;;;;;;;10.40;5.90;;;1.90;99.90;;;;;;5073893;28;19920;-85
2022/03/05 00:23:20;;;;;;;8.18;6.07;;;1.80;99.90;;;;;;5074338;28;20044;-84
2022/03/05 00:25:46;;;;;;;8.40;5.90;;;1.80;99.90;;;;;;5090933;28;20075;-84
2022/03/05 00:28:12;;;;;;;9.43;6.18;;;1.80;99.90;;;;;;5091062;28;20040;-85
2022/03/05 00:30:38;;;;;;;10.05;6.00;;;1.80;99.90;;;;;;5090749;28;20449;-85
2022/03/05 00:33:04;;;;;;;9.05;6.03;;;1.80;99.90;;;;;;5090557;28;20140;-85
2022/03/05 00:35:30;;;;;;;11.70;7.47;;;1.80;99.90;;;;;;5073615;28;20082;-85
2022/03/05 00:37:56;;;;;;;8.63;5.93;;;1.80;99.90;;;;;;5090974;28;20079;-85
2022/03/05 00:40:22;;;;;;;9.85;6.13;;;1.80;99.90;;;;;;5074080;28;20047;-85
2022/03/05 00:42:48;;;;;;;10.75;5.68;;;1.80;99.90;;;;;;5090323;28;20044;-85
2022/03/05 00:45:14;;;;;;;8.95;5.90;;;1.70;99.90;;;;;;5073594;28;20036;-85
2022/03/05 00:47:39;;;;;;;8.63;5.97;;;1.70;99.90;;;;;;5090785;28;20121;-85
2022/03/05 00:50:07;;;;;;;8.68;4.97;;;1.70;99.90;;;;;;5090300;28;20170;-85
2022/03/05 00:52:33;;;;;;;11.00;6.10;;;1.80;99.90;;;;;;5090240;28;20059;-84
2022/03/05 00:54:59;;;;;;;10.23;6.20;;;1.70;99.90;;;;;;5090365;28;20416;-85
2022/03/05 00:57:25;;;;;;;9.00;5.32;;;1.70;99.90;;;;;;5090747;28;20054;-85
2022/03/05 00:59:50;;;;;;;9.82;5.97;;;1.70;99.90;;;;;;5089580;28;20117;-85
2022/03/05 01:02:16;;;;;;;8.40;5.43;;;1.70;99.90;;;;;;5090138;28;20043;-85
2022/03/05 01:04:42;;;;;;;8.35;5.57;;;1.60;99.90;;;;;;5090112;28;20040;-85
2022/03/05 01:07:07;;;;;;;10.98;5.70;;;1.60;99.90;;;;;;5089348;28;20678;-85
2022/03/05 01:09:33;;;;;;;9.30;6.07;;;1.60;99.90;;;;;;5089493;28;20039;-85
2022/03/05 01:11:59;;;;;;;8.77;5.47;;;1.60;99.90;;;;;;5089257;28;20039;-85
2022/03/05 01:14:24;;;;;;;10.07;6.15;;;1.60;99.90;;;;;;5071894;28;20154;-85
2022/03/05 01:16:50;;;;;;;10.68;5.97;;;1.60;99.90;;;;;;5088870;28;20051;-84
2022/03/05 01:19:15;;;;;;;10.18;6.45;;;1.50;99.90;;;;;;5089210;28;20495;-84
2022/03/05 01:21:41;;;;;;;9.82;5.85;;;1.50;99.90;;;;;;5071926;28;20044;-85
2022/03/05 01:24:07;;;;;;;10.15;5.95;;;1.50;99.90;;;;;;5088438;28;20036;-85
2022/03/05 01:26:32;;;;;;;8.52;5.63;;;1.50;99.90;;;;;;5088784;28;20464;-85
2022/03/05 01:28:58;;;;;;;10.93;6.20;;;1.40;99.90;;;;;;5071684;28;20449;-84
2022/03/05 01:31:24;;;;;;;10.90;6.00;;;1.40;99.90;;;;;;5089484;28;20052;-84
2022/03/05 01:33:50;;;;;;;11.25;5.88;;;1.30;99.90;;;;;;5089377;28;20472;-85
2022/03/05 01:36:15;;;;;;;11.32;5.65;;;1.30;99.90;;;;;;5094890;28;20042;-85
2022/03/05 01:38:41;;;;;;;8.57;5.22;;;1.30;99.90;;;;;;5094863;28;20083;-85
2022/03/05 01:41:06;;;;;;;10.80;5.80;;;1.30;99.90;;;;;;5071720;28;20079;-85
2022/03/05 01:43:32;;;;;;;9.25;5.88;;;1.30;99.90;;;;;;5071287;28;20131;-85
2022/03/05 01:45:58;;;;;;;10.85;6.10;;;1.30;99.90;;;;;;5071995;28;20043;-85
2022/03/05 01:48:24;;;;;;;7.72;5.65;;;1.30;99.90;;;;;;5071724;28;20039;-85
2022/03/05 01:50:49;;;;;;;9.68;6.63;;;1.20;99.90;;;;;;5088475;28;20043;-85
2022/03/05 01:53:15;;;;;;;8.98;5.25;;;1.20;99.90;;;;;;5071850;28;20096;-85
2022/03/05 01:55:43;;;;;;;8.65;5.20;;;1.20;99.90;;;;;;5088411;28;20040;-85
2022/03/05 01:58:08;;;;;;;8.68;5.95;;;1.20;99.90;;;;;;5071505;28;20486;-85
2022/03/05 02:00:34;;;;;;;10.32;5.82;;;1.10;99.90;;;;;;5088184;28;20043;-85
2022/03/05 02:03:00;;;;;;;9.85;5.63;;;1.10;99.90;;;;;;5088538;28;20047;-85
2022/03/05 02:05:26;;;;;;;9.23;5.40;;;1.10;99.90;;;;;;5088736;28;20044;-85
2022/03/05 02:07:51;;;;;;;9.20;5.47;;;1.10;99.90;;;;;;5088402;28;20134;-85
2022/03/05 02:10:17;;;;;;;9.35;6.05;;;1.10;99.90;;;;;;5087329;28;20063;-84
2022/03/05 02:12:44;;;;;;;9.18;5.22;;;1.10;99.90;;;;;;5087626;28;20039;-84
2022/03/05 02:15:10;;;;;;;8.73;5.07;;;1.10;99.90;;;;;;5088281;28;20076;-85
2022/03/05 02:17:37;;;;;;;9.85;6.10;;;1.00;99.90;;;;;;5088380;28;20082;-85
2022/03/05 02:20:04;;;;;;;8.20;5.70;;;1.10;99.90;;;;;;5087986;28;20409;-84
2022/03/05 02:22:30;;;;;;;8.80;5.47;;;1.00;99.90;;;;;;5070431;28;20052;-84
2022/03/05 02:24:59;;;;;;;7.70;5.55;;;1.00;99.90;;;;;;5088384;28;20160;-85
2022/03/05 02:27:27;;;;;;;10.60;5.57;;;1.00;99.90;;;;;;5088030;28;20131;-85
2022/03/05 02:29:53;;;;;;;10.13;5.82;;;1.00;99.90;;;;;;5087600;28;20521;-85
2022/03/05 02:32:23;;;;;;;10.82;5.00;;;1.00;99.90;;;;;;5070800;28;20093;-84
2022/03/05 02:34:49;;;;;;;9.95;5.05;;;1.00;99.90;;;;;;5087861;28;20040;-85
2022/03/05 02:37:16;;;;;;;7.78;5.03;;;1.00;99.90;;;;;;5088048;28;20055;-84
2022/03/05 02:39:42;;;;;;;10.93;5.63;;;1.00;99.90;;;;;;5087812;28;20044;-85
2022/03/05 02:42:08;;;;;;;9.27;6.20;;;0.90;99.90;;;;;;5087579;28;20152;-85
2022/03/05 02:44:34;;;;;;;10.18;7.00;;;0.90;99.90;;;;;;5087503;28;20442;-85
2022/03/05 02:47:01;;;;;;;10.20;7.10;;;0.90;99.90;;;;;;5086747;28;20412;-84
2022/03/05 02:49:26;;;;;;;9.43;6.83;;;0.90;99.90;;;;;;5086581;28;20485;-85
2022/03/05 02:51:52;;;;;;;8.35;5.60;;;0.90;99.90;;;;;;5087579;28;20455;-85
2022/03/05 02:54:18;;;;;;;9.98;5.05;;;0.90;99.90;;;;;;5088107;28;20041;-85
2022/03/05 02:56:44;;;;;;;7.18;4.72;;;0.80;99.90;;;;;;5070993;28;20044;-85
2022/03/05 02:59:09;;;;;;;9.45;5.30;;;0.80;99.90;;;;;;5087237;28;20135;-84
2022/03/05 03:01:35;;;;;;;8.25;4.75;;;0.90;99.90;;;;;;5070640;28;20044;-84
2022/03/05 03:04:02;;;;;;;7.90;4.57;;;0.80;99.90;;;;;;5087545;28;20040;-84
2022/03/05 03:06:27;;;;;;;9.68;4.53;;;0.90;99.90;;;;;;5070934;28;20371;-84
2022/03/05 03:08:53;;;;;;;7.93;4.40;;;0.90;99.90;;;;;;5070886;28;20047;-85
2022/03/05 03:11:19;;;;;;;8.45;4.72;;;0.90;99.90;;;;;;5087696;28;20079;-84
2022/03/05 03:13:44;;;;;;;10.27;4.70;;;1.00;99.90;;;;;;5087087;28;20032;-84
2022/03/05 03:16:10;;;;;;;7.40;4.82;;;1.00;99.90;;;;;;5087369;28;20123;-84
2022/03/05 03:18:35;;;;;;;7.88;4.90;;;1.00;99.90;;;;;;5087331;28;20438;-85
2022/03/05 03:21:01;;;;;;;8.75;4.85;;;1.00;99.90;;;;;;5070294;28;20051;-84
2022/03/05 03:23:27;;;;;;;8.48;4.65;;;1.00;99.90;;;;;;5074506;28;20295;-84
2022/03/05 03:25:52;;;;;;;10.57;4.70;;;0.90;99.90;;;;;;5091294;28;20040;-85
2022/03/05 03:28:18;;;;;;;7.32;4.80;;;1.00;99.90;;;;;;5091636;28;20040;-85
2022/03/05 03:30:44;;;;;;;8.15;4.53;;;0.90;99.90;;;;;;5093754;28;20513;-85
2022/03/05 03:33:09;;;;;;;7.32;4.95;;;0.90;99.90;;;;;;5076883;28;20452;-84
2022/03/05 03:35:35;;;;;;;8.50;4.63;;;0.90;99.90;;;;;;5094125;28;20040;-85
2022/03/05 03:38:01;;;;;;;7.50;4.88;;;0.90;99.90;;;;;;5094397;28;20410;-85
2022/03/05 03:40:27;;;;;;;8.32;4.93;;;0.90;99.90;;;;;;5094305;28;20043;-85
2022/03/05 03:42:53;;;;;;;8.45;4.43;;;0.90;99.90;;;;;;5076796;28;20047;-85
2022/03/05 03:45:19;;;;;;;11.02;5.38;;;0.90;99.90;;;;;;5076699;28;20134;-85
2022/03/05 03:47:48;;;;;;;8.60;5.15;;;0.90;99.90;;;;;;5093765;28;20043;-84
2022/03/05 03:50:16;;;;;;;10.45;5.68;;;0.90;99.90;;;;;;5076904;28;20123;-85
2022/03/05 03:52:41;;;;;;;9.63;5.18;;;0.90;99.90;;;;;;5094124;28;20043;-85
2022/03/05 03:55:10;;;;;;;10.70;5.40;;;0.90;99.90;;;;;;5094268;28;20050;-84
2022/03/05 03:57:37;;;;;;;9.25;5.18;;;0.90;99.90;;;;;;5093562;28;20126;-84
2022/03/05 04:00:05;;;;;;;8.80;4.60;;;0.90;99.90;;;;;;5094372;28;20044;-85
2022/03/05 04:02:30;;;;;;;12.07;5.63;;;0.90;99.90;;;;;;5076967;28;20101;-84
2022/03/05 04:04:56;;;;;;;;;;;0.90;99.90;;;;;;5094633;28;20047;-85
2022/03/05 04:10:06;;;;;;;;;;;0.90;99.90;;;;;;5094656;28;20362;-85
2022/03/05 04:12:31;;;;;;;13.38;6.10;;;0.90;99.90;;;;;;5094162;28;19939;-85
2022/03/05 04:14:58;;;;;;;13.18;6.35;;;0.90;99.90;;;;;;5093865;28;20061;-84
2022/03/05 04:17:23;;;;;;;11.10;5.15;;;0.80;99.90;;;;;;5093712;28;20044;-84
2022/03/05 04:19:49;;;;;;;13.82;6.65;;;0.80;99.90;;;;;;5076714;28;20050;-85
2022/03/05 04:22:15;;;;;;;15.32;7.00;;;0.80;99.90;;;;;;5093815;28;20079;-84
2022/03/05 04:24:41;;;;;;;13.98;7.82;;;0.80;99.90;;;;;;5077001;28;20066;-84
2022/03/05 04:27:07;;;;;;;12.43;7.18;;;0.80;99.90;;;;;;5076536;28;20553;-84
2022/03/05 04:29:33;;;;;;;16.98;7.55;;;0.80;99.90;;;;;;5093575;28;20155;-84
2022/03/05 04:31:59;;;;;;;14.75;7.80;;;0.80;99.90;;;;;;5076590;28;20044;-84
2022/03/05 04:34:26;;;;;;;14.10;7.45;;;0.80;99.90;;;;;;5075140;28;20130;-85
2022/03/05 04:36:52;;;;;;;14.85;8.57;;;0.70;99.90;;;;;;5093488;28;20126;-85
2022/03/05 04:39:17;;;;;;;15.18;7.97;;;0.70;99.90;;;;;;5076760;28;20044;-85
2022/03/05 04:41:43;;;;;;;13.50;7.07;;;0.70;99.90;;;;;;5075989;28;20066;-84
2022/03/05 04:44:09;;;;;;;15.68;8.45;;;0.70;99.90;;;;;;5076274;28;20486;-85
2022/03/05 04:46:35;;;;;;;17.08;8.57;;;0.70;99.90;;;;;;5089972;28;20066;-85
2022/03/05 04:49:01;;;;;;;14.13;7.70;;;0.70;99.90;;;;;;5072947;28;20132;-85
2022/03/05 04:51:27;;;;;;;17.48;7.90;;;0.70;99.90;;;;;;5089342;28;20040;-85
2022/03/05 04:53:53;;;;;;;15.32;7.57;;;0.60;99.90;;;;;;5072874;28;20051;-85
2022/03/05 04:56:18;;;;;;;12.38;7.13;;;0.70;99.90;;;;;;5073318;28;20044;-85
2022/03/05 04:58:44;;;;;;;16.33;8.13;;;0.60;99.90;;;;;;5089625;28;20524;-85
2022/03/05 05:01:10;;;;;;;13.23;7.72;;;0.60;99.90;;;;;;5072879;28;20075;-85
2022/03/05 05:03:36;;;;;;;12.82;7.32;;;0.60;99.90;;;;;;5072501;28;20101;-84
2022/03/05 05:06:01;;;;;;;12.50;7.40;;;0.60;99.90;;;;;;5072408;28;20101;-85
2022/03/05 05:08:28;;;;;;;11.32;6.82;;;0.60;99.90;;;;;;5072272;28;20071;-85
2022/03/05 05:10:53;;;;;;;11.15;6.07;;;0.60;99.90;;;;;;5088799;28;20048;-85
2022/03/05 05:13:19;;;;;;;11.45;6.40;;;0.60;99.90;;;;;;5071963;28;20044;-85
2022/03/05 05:15:48;;;;;;;16.35;7.35;;;0.60;99.90;;;;;;5063683;28;20063;-85
2022/03/05 05:18:13;;;;;;;12.50;6.07;;;0.60;99.90;;;;;;5072690;28;20462;-85
2022/03/05 05:20:39;;;;;;;9.43;5.50;;;0.60;99.90;;;;;;5093098;28;20082;-84
2022/03/05 05:23:05;;;;;;;9.98;6.00;;;0.60;99.90;;;;;;5093283;28;20445;-84
2022/03/05 05:25:30;;;;;;;10.80;5.93;;;0.50;99.90;;;;;;5073132;28;20444;-84
2022/03/05 05:27:56;;;;;;;10.48;6.25;;;0.50;99.90;;;;;;5090114;28;20040;-85
2022/03/05 05:30:21;;;;;;;11.48;5.88;;;0.50;99.90;;;;;;5089312;28;20055;-84
2022/03/05 05:32:47;;;;;;;8.98;5.72;;;0.60;99.90;;;;;;5076078;28;20493;-85
2022/03/05 05:35:13;;;;;;;9.00;5.95;;;0.50;99.90;;;;;;5076327;28;20039;-85
2022/03/05 05:37:38;;;;;;;11.30;6.45;;;0.50;99.90;;;;;;5076222;28;20050;-85
2022/03/05 05:40:05;;;;;;;9.25;5.72;;;0.50;99.90;;;;;;5092755;28;20044;-85
2022/03/05 05:42:31;;;;;;;11.00;5.78;;;0.50;99.90;;;;;;5076253;28;20051;-85
2022/03/05 05:44:56;;;;;;;10.43;5.80;;;0.50;99.90;;;;;;5075610;28;20044;-85
2022/03/05 05:47:22;;;;;;;11.80;6.22;;;0.50;99.90;;;;;;5075833;28;21162;-84
2022/03/05 05:49:48;;;;;;;9.65;5.38;;;0.50;99.90;;;;;;5067148;28;20102;-85
2022/03/05 05:52:13;;;;;;;10.05;6.30;;;0.50;99.90;;;;;;5072684;28;20051;-85
2022/03/05 05:54:39;;;;;;;11.20;6.18;;;0.50;99.90;;;;;;5056008;28;20040;-85
2022/03/05 05:57:05;;;;;;;11.55;6.15;;;0.50;99.90;;;;;;5071970;28;20170;-85
2022/03/05 05:59:31;;;;;;;11.68;6.55;;;0.50;99.90;;;;;;5072327;28;20134;-85
2022/03/05 06:01:58;;;;;;;12.20;6.40;;;0.50;99.90;;;;;;5072155;28;20166;-85
2022/03/05 06:04:24;;;;;;;9.90;6.20;;;0.50;99.90;;;;;;5055434;28;20048;-85
2022/03/05 06:06:49;;;;;;;12.13;6.82;;;0.50;99.90;;;;;;5055366;28;20050;-85
2022/03/05 06:09:15;;;;;;;16.73;7.30;;;0.50;99.90;;;;;;5055671;28;20048;-84
2022/03/05 06:11:40;;;;;;;13.75;8.48;;;0.50;99.90;;;;;;5055937;28;20512;-85
2022/03/05 06:14:06;;;;;;;14.80;8.57;;;0.60;99.90;;;;;;5071932;28;20131;-84
2022/03/05 06:16:32;;;;;;;14.88;8.07;;;0.60;99.90;;;;;;5055710;28;20040;-83
2022/03/05 06:18:58;;;;;;;13.73;7.68;;;0.60;99.90;;;;;;5055996;28;20043;-84
2022/03/05 06:21:26;;;;;;;13.27;7.70;;;0.60;99.90;;;;;;5055065;28;20054;-84
2022/03/05 06:23:54;;;;;;;14.88;7.45;;;0.60;99.90;;;;;;5079746;28;20048;-84
2022/03/05 06:26:20;;;;;;;15.05;8.32;;;0.70;99.90;;;;;;5075629;28;20050;-85
2022/03/05 06:28:46;;;;;;;16.05;8.43;;;0.70;99.90;;;;;;5071989;28;20461;-85
2022/03/05 06:31:11;;;;;;;11.90;7.07;;;0.70;99.90;;;;;;5071759;28;20048;-85
2022/03/05 06:33:37;;;;;;;13.23;7.60;;;0.70;99.90;;;;;;5088984;28;20044;-85
2022/03/05 06:36:03;;;;;;;11.35;6.78;;;0.70;99.90;;;;;;5074754;28;20036;-85
2022/03/05 06:38:32;;;;;;;12.52;7.60;;;0.70;99.90;;;;;;5082169;28;20050;-85
2022/03/05 06:40:57;;;;;;;13.75;7.10;;;0.70;99.90;;;;;;5085321;28;20081;-85
2022/03/05 06:43:23;;;;;;;10.80;7.45;;;0.70;99.90;;;;;;5090779;28;20527;-85
2022/03/05 06:45:48;;;;;;;10.88;7.47;;;0.70;99.90;;;;;;5107818;28;20047;-86
2022/03/05 06:48:14;;;;;;;12.93;7.47;;;0.70;99.90;;;;;;5103610;28;20469;-85
2022/03/05 06:50:40;;;;;;;14.45;7.68;;;0.70;99.90;;;;;;5093831;28;20126;-84
2022/03/05 06:53:05;;;;;;;11.90;7.80;;;0.80;99.90;;;;;;5096217;28;20122;-85
2022/03/05 06:55:31;;;;;;;13.15;7.80;;;0.80;99.90;;;;;;5089863;28;20044;-85
2022/03/05 06:57:57;;;;;;;14.93;8.10;;;0.80;99.90;;;;;;5100733;28;20118;-85
2022/03/05 07:00:23;;;;;;;13.35;7.15;;;0.80;99.90;;;;;;5087283;28;20464;-85
2022/03/05 07:02:48;;;;;;;12.95;7.53;;;0.80;99.90;;;;;;5089910;28;20043;-85
2022/03/05 07:05:14;;;;;;;13.40;7.75;;;0.90;99.90;;;;;;5096267;28;20036;-85
2022/03/05 07:07:40;;;;;;;16.33;8.48;;;0.90;99.90;;;;;;5104196;28;20416;-85
2022/03/05 07:10:07;;;;;;;14.80;8.43;;;1.00;99.90;;;;;;5103158;28;20066;-85
2022/03/05 07:12:33;;;;;;;12.35;7.35;;;1.00;99.90;;;;;;5089629;28;20043;-85
2022/03/05 07:14:59;;;;;;;14.60;7.78;;;1.00;99.90;;;;;;5096483;28;20100;-86
2022/03/05 07:17:25;;;;;;;12.52;7.40;;;1.10;99.90;;;;;;5078639;28;20606;-85
2022/03/05 07:19:51;;;;;;;14.90;7.40;;;1.10;99.90;;;;;;5098748;28;20043;-85
2022/03/05 07:22:17;;;;;;;12.60;6.90;;;1.20;99.90;;;;;;5083344;28;20088;-85
2022/03/05 07:24:43;;;;;;;15.10;7.78;;;1.20;99.90;;;;;;5102443;28;20031;-85
2022/03/05 07:27:08;;;;;;;12.30;7.13;;;1.30;99.90;;;;;;5103019;28;20458;-85
2022/03/05 07:29:34;;;;;;;14.55;7.13;;;1.30;99.90;;;;;;5106107;28;20734;-86
2022/03/05 07:32:00;;;;;;;13.95;7.00;;;1.40;99.90;;;;;;5099280;28;20054;-83
2022/03/05 07:34:26;;;;;;;13.45;7.40;;;1.40;99.90;;;;;;5089535;28;20047;-85
2022/03/05 07:36:51;;;;;;;15.68;7.57;;;1.50;99.90;;;;;;5106110;28;20047;-85
2022/03/05 07:39:17;;;;;;;14.18;8.30;;;1.60;99.90;;;;;;5100279;28;20055;-85
2022/03/05 07:41:43;;;;;;;14.88;7.75;;;1.60;99.90;;;;;;5097742;28;20814;-84
2022/03/05 07:44:08;;;;;;;17.63;8.88;;;1.60;99.90;;;;;;5102436;28;20485;-85
2022/03/05 07:46:37;;;;;;;;;;;1.70;99.90;;;;;;5103525;28;20039;-85
2022/03/05 07:49:03;;;;;;;;;;;1.70;99.90;;;;;;5082793;28;20034;-85
2022/03/05 07:51:29;;;;;;;;;;;1.70;99.90;;;;;;5104677;28;20053;-84
2022/03/05 07:53:54;;;;;;;15.93;8.95;;;1.80;99.90;;;;;;5087832;28;19920;-84
2022/03/05 07:56:21;;;;;;;18.33;9.77;;;1.80;99.90;;;;;;5097781;28;20570;-86
2022/03/05 07:58:47;;;;;;;12.98;7.55;;;1.80;99.90;;;;;;5089705;28;20040;-84
2022/03/05 08:01:13;;;;;;;12.00;7.25;;;1.90;99.90;;;;;;5107575;28;20048;-83
2022/03/05 08:03:39;;;;;;;15.05;8.52;;;1.90;99.90;;;;;;5107803;28;20123;-84
2022/03/05 08:06:05;;;;;;;13.55;7.30;;;1.90;99.90;;;;;;5075893;28;20509;-84
2022/03/05 08:08:30;;;;;;;12.90;7.07;;;1.90;99.90;;;;;;5073126;28;20048;-84
2022/03/05 08:10:56;;;;;;;15.02;8.20;;;2.00;99.90;;;;;;5091681;28;20048;-84
2022/03/05 08:13:22;;;;;;;12.95;8.30;;;2.00;99.90;;;;;;5082580;28;20043;-83
2022/03/05 08:15:48;;;;;;;14.40;8.07;;;2.00;99.90;;;;;;5100819;28;20047;-84
2022/03/05 08:18:14;;;;;;;13.73;7.50;;;2.10;99.90;;;;;;5077360;28;20068;-84
2022/03/05 08:20:39;;;;;;;14.82;7.97;;;2.10;99.90;;;;;;5086405;28;20075;-84
2022/03/05 08:23:05;;;;;;;13.50;7.63;;;2.10;99.90;;;;;;5101246;28;20529;-84
2022/03/05 08:25:31;;;;;;;11.77;7.22;;;2.10;99.90;;;;;;5093623;28;20580;-82
2022/03/05 08:27:56;;;;;;;14.93;8.35;;;2.20;99.90;;;;;;5106352;28;20031;-83
2022/03/05 08:30:22;;;;;;;13.43;8.40;;;2.20;99.90;;;;;;5101325;28;20054;-83
2022/03/05 08:32:48;;;;;;;12.35;8.35;;;2.20;99.90;;;;;;5102304;28;20131;-83
2022/03/05 08:35:15;;;;;;;16.25;8.30;;;2.20;99.90;;;;;;5108695;28;20122;-84
2022/03/05 08:37:41;;;;;;;17.25;9.27;;;2.30;99.90;;;;;;5111820;28;20088;-83
2022/03/05 08:40:09;;;;;;;12.80;7.78;;;2.30;99.90;;;;;;5085214;28;20424;-84
2022/03/05 08:42:36;;;;;;;16.58;9.60;;;2.30;99.90;;;;;;5087703;28;20044;-83
2022/03/05 08:45:06;;;;;;;15.55;8.10;;;2.40;99.90;;;;;;5075482;28;20054;-83
2022/03/05 08:47:32;;;;;;;14.05;7.95;;;2.50;99.90;;;;;;5074547;28;20161;-83
2022/03/05 08:49:58;;;;;;;12.98;8.05;;;2.50;99.90;;;;;;5088207;28;20085;-83
2022/03/05 08:52:23;;;;;;;13.25;7.93;;;2.50;99.90;;;;;;5089839;28;20051;-83
2022/03/05 08:54:49;;;;;;;12.52;8.02;;;2.60;99.90;;;;;;5072471;28;20130;-83
2022/03/05 08:57:15;;;;;;;14.43;8.15;;;2.60;99.90;;;;;;5090218;28;20036;-82
2022/03/05 08:59:40;;;;;;;17.27;9.55;;;2.60;99.90;;;;;;5072810;28;20043;-83
2022/03/05 09:02:07;;;;;;;15.50;9.13;;;2.70;99.90;;;;;;5069505;28;20115;-83
2022/03/05 09:04:33;;;;;;;16.92;8.73;;;2.70;99.90;;;;;;5089888;28;20076;-84
2022/03/05 09:07:00;;;;;;;15.30;9.52;;;2.70;99.90;;;;;;5107167;28;20054;-84
2022/03/05 09:09:25;;;;;;;16.58;9.10;;;2.80;99.90;;;;;;5092860;28;20618;-84
2022/03/05 09:11:51;;;;;;;15.68;9.02;;;2.80;99.90;;;;;;5090077;28;20079;-84
2022/03/05 09:14:16;;;;;;;16.80;9.88;;;2.80;99.90;;;;;;5092266;28;20040;-83
2022/03/05 09:16:42;;;;;;;15.70;9.02;;;2.90;99.90;;;;;;5107450;28;20037;-84
2022/03/05 09:19:08;;;;;;;17.17;11.45;;;3.00;99.90;;;;;;5092388;28;20449;-83
2022/03/05 09:21:35;;;;;;;15.25;9.52;;;3.00;99.90;;;;;;5090338;28;20044;-83
2022/03/05 09:24:01;;;;;;;;;;;3.10;99.90;;;;;;5090194;28;20123;-84
2022/03/05 09:26:27;;;;;;;;;;;3.70;99.90;;;;;;5092254;28;20015;-85
2022/03/05 09:28:52;;;;;;;;;;;4.70;99.90;;;;;;5076931;28;19972;-83
2022/03/05 09:31:18;;;;;;;;;;;5.70;99.90;;;;;;5079000;28;20040;-83
2022/03/05 09:33:43;;;;;;;;;;;6.50;99.90;;;;;;5093172;28;20042;-83
2022/03/05 09:36:09;;;;;;;;;;;7.10;99.90;;;;;;5093757;28;19920;-84
2022/03/05 09:38:35;;;;;;;;;;;7.60;97.20;;;;;;5090633;28;19920;-84
2022/03/05 09:41:01;;;;;;;;;;;8.10;97.40;;;;;;5089865;28;19924;-84
2022/03/05 09:43:26;;;;;;;;;;;8.60;95.60;;;;;;5092337;28;20405;-85
2022/03/05 09:45:52;;;;;;;;;;;9.00;92.20;;;;;;5078384;28;19920;-84
2022/03/05 09:48:18;;;;;;;;;;;9.20;90.40;;;;;;5092716;28;19966;-84
2022/03/05 09:50:44;;;;;;;11.73;7.70;;;9.60;90.50;;;;;;5088010;28;20287;-84
2022/03/05 09:53:10;;;;;;;11.18;8.60;;;9.70;88.00;;;;;;5089100;28;20426;-84
2022/03/05 09:55:36;;;;;;;12.27;8.18;;;9.80;82.40;;;;;;5073325;28;20040;-84
2022/03/05 09:58:01;;;;;;;11.55;7.80;;;9.70;79.80;;;;;;5090336;28;20040;-83
2022/03/05 10:00:27;;;;;;;;;;;9.90;81.60;;;;;;5090229;28;20073;-84
2022/03/05 10:02:53;;;;;;;;;;;10.30;79.70;;;;;;5093170;28;19924;-84
2022/03/05 10:05:31;;;;;;;;;;;10.40;74.50;;;;;;5096702;28;19924;-83
2022/03/05 10:07:57;;;;;;;;;;;10.30;73.60;;;;;;5079852;28;19978;-83
2022/03/05 10:10:23;;;;;;;;;;;10.30;73.50;;;;;;5094673;28;19924;-83
2022/03/05 10:12:48;;;;;;;;;;;10.50;74.90;;;;;;5098030;28;19924;-83
2022/03/05 10:15:17;;;;;;;;;;;10.70;68.10;;;;;;5075954;28;19927;-83
2022/03/05 10:17:46;;;;;;;;;;;10.70;71.40;;;;;;5090241;28;19943;-84
2022/03/05 10:20:11;;;;;;;;;;;10.80;69.40;;;;;;5089394;28;19920;-83
2022/03/05 10:22:37;;;;;;;;;;;10.70;66.70;;;;;;5087021;28;20297;-83
2022/03/05 10:25:02;;;;;;;;;;;10.60;69.50;;;;;;5087584;28;20408;-83
2022/03/05 10:27:29;;;;;;;;;;;10.80;69.00;;;;;;5087101;28;19928;-83
2022/03/05 10:29:55;;;;;;;;;;;10.90;66.10;;;;;;5088268;28;19928;-83
2022/03/05 10:32:21;;;;;;;;;;;11.00;68.10;;;;;;5087740;28;19927;-83
2022/03/05 10:34:50;;;;;;;;;;;11.10;66.60;;;;;;5087339;28;19927;-82
2022/03/05 10:37:20;;;;;;;;;;;11.20;65.70;;;;;;5087949;28;19931;-83
2022/03/05 10:39:45;;;;;;;;;;;11.60;68.20;;;;;;5088305;28;20390;-83
2022/03/05 10:42:22;;;;;;;;;;;12.00;65.80;;;;;;5088720;28;19927;-85
2022/03/05 10:45:00;;;;;;;;;;;12.30;64.40;;;;;;5092333;28;19951;-84
2022/03/05 10:47:34;;;;;;;;;;;12.20;61.70;;;;;;5088475;28;20077;-84
2022/03/05 10:50:04;;;;;;;;;;;12.10;62.00;;;;;;5113603;27;19931;-84
2022/03/05 10:52:42;;;;;;;;;;;12.20;61.60;;;;;;5095184;28;20010;-84
2022/03/05 10:55:16;;;;;;;;;;;12.40;61.50;;;;;;5089536;28;19973;-85
2022/03/05 10:57:54;;;;;;;;;;;12.30;58.90;;;;;;5091421;28;19920;-85
2022/03/05 11:00:20;;;;;;;;;;;12.20;58.10;;;;;;5091243;28;19919;-85
2022/03/05 11:02:45;;;;;;;;;;;12.10;59.50;;;;;;5090530;28;19924;-84
2022/03/05 11:05:11;;;;;;;;;;;12.10;58.40;;;;;;5094650;28;19970;-84
2022/03/05 11:07:37;;;;;;;;;;;12.50;60.40;;;;;;5110280;28;20431;-85
2022/03/05 11:10:03;;;;;;;;;;;12.80;58.60;;;;;;5091550;28;20263;-83
2022/03/05 11:12:30;;;;;;;;;;;13.20;60.10;;;;;;5076968;28;19920;-84
2022/03/05 11:14:56;;;;;;;;;;;13.40;57.10;;;;;;5092585;28;19983;-84
2022/03/05 11:17:21;;;;;;;;;;;13.40;56.10;;;;;;5093074;28;20011;-85
2022/03/05 11:19:48;;;;;;;;;;;13.60;56.70;;;;;;5091497;28;20001;-84
2022/03/05 11:22:14;;;;;;;;;;;13.80;53.30;;;;;;5092813;28;19920;-84
2022/03/05 11:24:40;;;;;;;;;;;13.50;53.30;;;;;;5099202;28;20055;-84
2022/03/05 11:27:06;;;;;;;;;;;13.40;55.80;;;;;;5113023;28;20440;-84
2022/03/05 11:29:51;;;;;;;;;;;13.70;56.70;;;;;;5096279;28;19959;-84
2022/03/05 11:32:18;;;;;;;;;;;14.10;55.30;;;;;;5098582;28;19920;-83
2022/03/05 11:34:45;;;;;;;;;;;14.40;54.60;;;;;;5093434;28;20389;-85
2022/03/05 11:37:15;;;;;;;;;;;14.60;55.00;;;;;;5092646;28;20336;-84
2022/03/05 11:39:41;;;;;;;;;;;14.70;53.20;;;;;;5093871;28;19921;-83
2022/03/05 11:42:08;;;;;;;;;;;15.00;53.80;;;;;;5093156;28;19983;-84
2022/03/05 11:44:39;;;;;;;;;;;15.00;51.70;;;;;;5093166;28;19927;-84
2022/03/05 11:47:23;;;;;;;;;;;14.90;50.70;;;;;;5098613;28;20328;-84
2022/03/05 11:49:55;;;;;;;;;;;14.80;52.20;;;;;;5082220;28;19924;-83
2022/03/05 11:52:21;;;;;;;;;;;14.60;51.20;;;;;;5082609;28;20398;-83
2022/03/05 11:55:05;;;;;;;;;;;14.60;51.90;;;;;;5102180;28;19960;-83
2022/03/05 11:57:30;;;;;;;;;;;14.60;52.00;;;;;;5098887;28;19956;-83
2022/03/05 12:00:03;;;;;;;;;;;14.80;51.60;;;;;;5099024;28;19920;-82
2022/03/05 12:02:40;;;;;;;;;;;14.70;52.30;;;;;;5098896;28;20358;-84
2022/03/05 12:05:06;;;;;;;;;;;14.90;53.20;;;;;;5110627;28;20268;-84
2022/03/05 12:07:41;;;;;;;;;;;14.90;50.80;;;;;;5120464;28;19929;-84
2022/03/05 12:10:13;;;;;;;;;;;14.70;52.00;;;;;;5124873;28;19924;-84
2022/03/05 12:12:52;;;;;;;;;;;14.60;50.50;;;;;;5123226;28;19928;-83
2022/03/05 12:15:17;;;;;;;;;;;14.70;51.30;;;;;;5106168;28;20380;-84
2022/03/05 12:17:48;;;;;;;;;;;14.70;50.70;;;;;;5118071;28;19977;-83
2022/03/05 12:20:15;;;;;;;;;;;14.60;51.00;;;;;;5119139;28;19931;-84
2022/03/05 12:22:48;;;;;;;;;;;14.60;51.60;;;;;;5105123;28;19949;-84
2022/03/05 12:25:14;;;;;;;;;;;14.70;51.10;;;;;;5099174;28;19924;-81
2022/03/05 12:27:46;;;;;;;;;;;14.80;51.30;;;;;;5096866;28;19924;-84
2022/03/05 12:30:12;;;;;;;;;;;14.90;49.60;;;;;;5076806;28;20343;-84
2022/03/05 12:32:41;;;;;;;;;;;14.70;51.20;;;;;;5074765;28;19920;-84
2022/03/05 12:35:08;;;;;;;;;;;14.90;50.90;;;;;;5106133;28;20023;-84
2022/03/05 12:37:34;;;;;;;;;;;15.30;51.80;;;;;;5092148;28;20272;-84
2022/03/05 12:40:00;;;;;;;;;;;15.50;49.80;;;;;;5092855;28;19927;-84
2022/03/05 12:42:41;;;;;;;;;;;15.50;49.50;;;;;;5092853;28;19920;-84
2022/03/05 12:45:07;;;;;;;;;;;15.60;49.20;;;;;;5084422;28;19927;-84
2022/03/05 12:47:33;;;;;;;;;;;15.60;48.90;;;;;;5091969;28;19920;-84
2022/03/05 12:50:18;;;;;;;;;;;15.50;48.80;;;;;;5091897;28;20293;-84
2022/03/05 12:53:04;;;;;;;;;;;15.40;48.70;;;;;;5075111;28;19920;-84
2022/03/05 12:55:31;;;;;;;;;;;15.50;50.60;;;;;;5090688;28;19930;-84
2022/03/05 12:57:58;;;;;;;;;;;15.70;48.00;;;;;;5074274;28;20457;-84
2022/03/05 13:00:23;;;;;;;;;;;15.80;50.00;;;;;;5085957;28;20297;-83
2022/03/05 13:02:49;;;;;;;;;;;16.00;48.70;;;;;;5075544;28;19924;-83
2022/03/05 13:05:15;;;;;;;;;;;16.20;49.30;;;;;;5066640;28;20390;-83
2022/03/05 13:07:41;;;;;;;;;;;16.30;48.80;;;;;;5074981;28;19920;-83
2022/03/05 13:10:10;;;;;;;;;;;16.40;49.20;;;;;;5091707;28;20401;-83
2022/03/05 13:12:39;;;;;;;;;;;16.50;47.10;;;;;;5091868;28;19927;-83
2022/03/05 13:15:06;;;;;;;;;;;16.30;45.40;;;;;;5091935;28;19920;-83